Time;durP1;ratioP1;P1;durP2;ratioP2;P2;SDS_P1;SDS_P2;PMS_P1;PMS_P2;Temp;Humidity;BMP_temperature;BMP_pressure;BME280_temperature;BME280_humidity;BME280_pressure;Samples;Min_cycle;Max_cycle;Signal;HPM_P1;HPM_P2
2022/08/24 00:02:01;;;;;;;8.68;7.82;;;;;;;18.38;100.00;96552.31;5015233;28;20093;-50
2022/08/24 00:04:30;;;;;;;9.07;8.18;;;;;;;18.44;100.00;96551.53;5019976;28;20077;-55
2022/08/24 00:06:59;;;;;;;9.03;7.97;;;;;;;18.45;100.00;96555.88;5019607;28;20084;-53
2022/08/24 00:09:28;;;;;;;8.45;7.40;;;;;;;18.37;100.00;96555.97;5020111;28;20092;-50
2022/08/24 00:11:58;;;;;;;8.77;7.05;;;;;;;18.21;100.00;96551.75;5019550;28;20089;-53
2022/08/24 00:14:26;;;;;;;11.35;7.28;;;;;;;18.06;100.00;96549.09;5019975;28;20476;-49
2022/08/24 00:16:55;;;;;;;8.10;6.80;;;;;;;17.68;100.00;96551.09;5019822;28;20084;-49
2022/08/24 00:19:23;;;;;;;8.02;6.13;;;;;;;17.93;100.00;96552.47;5020737;28;20085;-52
2022/08/24 00:21:52;;;;;;;7.93;7.03;;;;;;;17.98;100.00;96554.56;5013942;28;20104;-53
2022/08/24 00:24:20;;;;;;;7.60;6.88;;;;;;;17.84;100.00;96548.25;5020505;28;20082;-51
2022/08/24 00:26:49;;;;;;;8.40;7.40;;;;;;;17.46;100.00;96555.56;5016359;28;20077;-52
2022/08/24 00:29:19;;;;;;;8.68;7.38;;;;;;;17.24;100.00;96557.28;5019218;28;20073;-49
2022/08/24 00:31:48;;;;;;;7.40;6.60;;;;;;;17.75;100.00;96544.84;5013374;28;20077;-53
2022/08/24 00:34:17;;;;;;;7.50;6.80;;;;;;;17.85;100.00;96543.75;5018674;28;20536;-50
2022/08/24 00:36:45;;;;;;;8.18;6.97;;;;;;;17.79;100.00;96553.34;5017806;28;20093;-54
2022/08/24 00:39:14;;;;;;;7.78;6.97;;;;;;;17.86;100.00;96556.91;5017854;28;20073;-56
2022/08/24 00:41:44;;;;;;;7.32;6.63;;;;;;;17.84;100.00;96550.09;5021956;28;20080;-55
2022/08/24 00:44:15;;;;;;;6.00;5.40;;;;;;;17.58;100.00;96543.38;5018582;28;20582;-49
2022/08/24 00:46:46;;;;;;;;;;;;;;;17.70;100.00;96549.09;5022985;28;20084;-50
2022/08/24 00:49:25;;;;;;;6.57;5.28;;;;;;;17.53;100.00;96543.97;5017746;28;19953;-52
2022/08/24 00:51:58;;;;;;;7.88;6.40;;;;;;;17.46;100.00;96550.22;5021029;28;20080;-51
2022/08/24 00:54:29;;;;;;;7.32;6.55;;;;;;;17.39;100.00;96563.47;5018980;28;20085;-53
2022/08/24 00:57:00;;;;;;;9.15;7.35;;;;;;;16.87;100.00;96567.03;5015744;28;20558;-52
2022/08/24 00:59:31;;;;;;;7.82;7.03;;;;;;;17.37;100.00;96562.00;5015425;28;20077;-49
2022/08/24 01:02:06;;;;;;;7.72;6.93;;;;;;;17.42;100.00;96552.44;5015770;28;20084;-51
2022/08/24 01:04:47;;;;;;;9.93;7.20;;;;;;;17.40;100.00;96561.63;5021534;28;20096;-54
2022/08/24 01:07:16;;;;;;;8.23;7.43;;;;;;;17.21;100.00;96563.03;5019645;28;20089;-54
2022/08/24 01:09:45;;;;;;;9.82;8.27;;;;;;;17.21;100.00;96558.53;5021389;28;20483;-53
2022/08/24 01:12:13;;;;;;;9.60;7.63;;;;;;;17.39;100.00;96560.81;5016134;28;20077;-52
2022/08/24 01:14:42;;;;;;;8.75;7.65;;;;;;;17.34;100.00;96557.84;5022535;28;20509;-55
2022/08/24 01:20:06;;;;;;;10.43;8.85;;;;;;;17.09;100.00;96567.97;5020515;28;20094;-51
2022/08/24 01:22:44;;;;;;;10.80;9.07;;;;;;;17.12;100.00;96556.13;5022723;28;20460;-49
2022/08/24 01:25:14;;;;;;;11.52;10.30;;;;;;;17.09;100.00;96563.47;5023177;28;20085;-53
2022/08/24 01:27:43;;;;;;;13.20;10.30;;;;;;;17.27;100.00;96555.13;5023242;28;20073;-53
2022/08/24 01:30:15;;;;;;;12.30;10.32;;;;;;;17.25;100.00;96559.78;5022104;28;20449;-55
2022/08/24 01:32:52;;;;;;;12.07;9.95;;;;;;;17.43;100.00;96553.25;5023506;28;20069;-53
2022/08/24 01:35:21;;;;;;;12.85;10.30;;;;;;;17.37;100.00;96562.81;5020570;28;20540;-58
2022/08/24 01:37:51;;;;;;;11.55;10.35;;;;;;;17.30;100.00;96556.56;5023304;28;20096;-56
2022/08/24 01:40:21;;;;;;;12.07;10.48;;;;;;;16.89;100.00;96553.50;5022603;28;20073;-54
2022/08/24 01:42:50;;;;;;;11.27;9.80;;;;;;;17.14;100.00;96562.09;5024173;28;20590;-52
2022/08/24 01:45:20;;;;;;;10.07;9.07;;;;;;;17.20;100.00;96553.34;5023472;28;20481;-52
2022/08/24 01:47:48;;;;;;;10.73;9.63;;;;;;;17.17;100.00;96551.91;5020110;28;20069;-48
2022/08/24 01:50:17;;;;;;;11.40;9.70;;;;;;;17.30;100.00;96544.06;5022072;28;20461;-52
2022/08/24 01:52:45;;;;;;;11.50;9.80;;;;;;;17.24;100.00;96550.16;5023064;28;20865;-55
2022/08/24 01:55:34;;;;;;;13.73;9.98;;;;;;;17.21;100.00;96545.19;5024023;28;20115;-57
2022/08/24 01:58:04;;;;;;;9.88;8.88;;;;;;;17.17;100.00;96551.91;5022146;28;20114;-55
2022/08/24 02:00:33;;;;;;;12.07;8.75;;;;;;;16.97;100.00;96546.28;5022153;28;20073;-51
2022/08/24 02:03:02;;;;;;;9.63;8.63;;;;;;;16.92;100.00;96543.31;5021089;28;20080;-51
2022/08/24 02:05:32;;;;;;;10.57;9.50;;;;;;;17.02;100.00;96543.06;5020972;28;20088;-55
2022/08/24 02:08:00;;;;;;;9.75;8.57;;;;;;;16.94;100.00;96538.66;5021708;28;20081;-54
2022/08/24 02:10:29;;;;;;;12.02;9.20;;;;;;;16.92;100.00;96547.81;5024720;28;20088;-55
2022/08/24 02:12:59;;;;;;;10.55;9.27;;;;;;;16.87;100.00;96542.22;5023729;28;20080;-51
2022/08/24 02:15:29;;;;;;;11.45;9.40;;;;;;;16.93;100.00;96541.47;5023522;28;20088;-59
2022/08/24 02:17:57;;;;;;;11.25;10.05;;;;;;;16.73;100.00;96552.66;5019921;28;22482;-54
2022/08/24 02:20:26;;;;;;;10.63;9.27;;;;;;;17.01;100.00;96557.41;5017793;28;20096;-55
2022/08/24 02:22:54;;;;;;;10.70;9.48;;;;;;;16.99;100.00;96551.41;5020633;28;20081;-54
2022/08/24 02:25:25;;;;;;;10.55;8.38;;;;;;;16.97;100.00;96556.94;5019322;28;20077;-56
2022/08/24 02:27:53;;;;;;;8.88;7.97;;;;;;;16.99;100.00;96546.91;5020858;28;20100;-49
2022/08/24 02:30:23;;;;;;;10.50;9.10;;;;;;;16.75;100.00;96550.63;5028236;28;20084;-48
2022/08/24 02:32:51;;;;;;;11.03;9.77;;;;;;;16.76;100.00;96556.81;5022075;28;20085;-54
2022/08/24 02:35:19;;;;;;;11.15;8.93;;;;;;;16.47;100.00;96561.00;5018162;28;20081;-51
2022/08/24 02:37:48;;;;;;;11.40;8.70;;;;;;;16.23;100.00;96556.72;5023104;28;20085;-52
2022/08/24 02:40:16;;;;;;;10.18;9.07;;;;;;;16.55;100.00;96562.78;5018670;28;20117;-54
2022/08/24 02:42:45;;;;;;;11.45;10.13;;;;;;;16.64;100.00;96563.53;5023302;28;20091;-55
2022/08/24 02:45:14;;;;;;;14.15;9.57;;;;;;;16.27;100.00;96565.97;5022926;28;20556;-52
2022/08/24 02:47:44;;;;;;;11.30;9.48;;;;;;;16.40;100.00;96565.41;5020125;28;20082;-51
2022/08/24 02:50:14;;;;;;;10.85;9.15;;;;;;;16.63;100.00;96562.72;5022286;28;20085;-51
2022/08/24 02:52:43;;;;;;;12.45;9.32;;;;;;;16.56;100.00;96561.78;5020441;28;20041;-50
2022/08/24 02:55:13;;;;;;;11.88;8.85;;;;;;;16.56;100.00;96565.28;5022883;28;20099;-56
2022/08/24 02:57:42;;;;;;;;;;;;;;;16.45;100.00;96557.72;5021092;28;20091;-54
2022/08/24 03:00:13;;;;;;;10.98;8.70;;;;;;;16.48;100.00;96559.19;5020966;28;19956;-53
2022/08/24 03:02:44;;;;;;;12.18;8.63;;;;;;;16.62;100.00;96563.75;5023223;28;20131;-49
2022/08/24 03:05:14;;;;;;;17.70;8.27;;;;;;;16.50;100.00;96559.84;5021088;28;20084;-53
2022/08/24 03:07:42;;;;;;;11.63;8.20;;;;;;;16.74;100.00;96558.78;5021167;28;20480;-55
2022/08/24 03:10:11;;;;;;;13.45;8.55;;;;;;;16.42;100.00;96562.56;5018706;28;20085;-49
2022/08/24 03:12:40;;;;;;;10.23;8.93;;;;;;;16.75;100.00;96557.81;5022266;28;20073;-51
2022/08/24 03:15:10;;;;;;;12.57;8.38;;;;;;;16.71;100.00;96561.81;5020961;28;20081;-50
2022/08/24 03:17:39;;;;;;;12.50;8.93;;;;;;;16.73;100.00;96560.63;5024351;28;20077;-56
2022/08/24 03:20:14;;;;;;;12.85;8.48;;;;;;;16.65;100.00;96559.88;5018571;28;20080;-54
2022/08/24 03:22:43;;;;;;;11.60;7.82;;;;;;;16.65;100.00;96555.38;5021944;28;20085;-50
2022/08/24 03:25:12;;;;;;;9.80;7.28;;;;;;;16.59;100.00;96561.44;5022605;28;20100;-54
2022/08/24 03:27:41;;;;;;;9.30;7.80;;;;;;;16.58;100.00;96559.75;5024465;28;20080;-54
2022/08/24 03:30:12;;;;;;;10.35;7.40;;;;;;;16.11;100.00;96560.81;5017992;28;20076;-56
2022/08/24 03:32:42;;;;;;;12.13;7.70;;;;;;;16.38;100.00;96564.75;5021058;28;20398;-57
2022/08/24 03:35:12;;;;;;;10.98;7.68;;;;;;;16.63;100.00;96560.06;5019090;28;20104;-55
2022/08/24 03:37:41;;;;;;;11.07;8.15;;;;;;;16.57;100.00;96560.78;5024515;28;20084;-51
2022/08/24 03:40:11;;;;;;;12.43;8.40;;;;;;;16.73;100.00;96560.63;5020630;28;20068;-54
2022/08/24 03:42:49;;;;;;;9.98;8.95;;;;;;;16.50;100.00;96568.66;5020757;28;20687;-49
2022/08/24 03:45:19;;;;;;;13.48;9.32;;;;;;;16.67;100.00;96571.19;5020379;28;20090;-54
2022/08/24 03:47:47;;;;;;;10.48;9.38;;;;;;;16.25;100.00;96569.84;5018064;28;20089;-49
2022/08/24 03:50:18;;;;;;;10.75;9.27;;;;;;;16.35;100.00;96571.25;5017874;28;20089;-51
2022/08/24 03:52:46;;;;;;;12.98;9.15;;;;;;;15.98;100.00;96572.00;5019093;28;20081;-51
2022/08/24 03:55:14;;;;;;;12.10;10.20;;;;;;;15.99;100.00;96570.19;5021351;28;20084;-52
2022/08/24 03:57:43;;;;;;;10.73;9.45;;;;;;;16.22;100.00;96568.38;5020758;28;20080;-55
2022/08/24 04:00:13;;;;;;;16.65;10.50;;;;;;;16.35;100.00;96567.78;5020102;28;20096;-51
2022/08/24 04:02:43;;;;;;;12.77;10.93;;;;;;;16.73;100.00;96570.47;5019987;28;20111;-53
2022/08/24 04:05:12;;;;;;;12.45;10.55;;;;;;;16.47;100.00;96562.84;5020945;28;20089;-51
2022/08/24 04:07:42;;;;;;;12.43;10.68;;;;;;;16.43;100.00;96569.53;5019383;28;20073;-49
2022/08/24 04:10:13;;;;;;;10.95;9.82;;;;;;;16.34;100.00;96569.63;5019922;28;20098;-57
2022/08/24 04:12:41;;;;;;;14.98;10.15;;;;;;;16.46;100.00;96569.19;5016718;28;20108;-52
2022/08/24 04:15:11;;;;;;;12.27;9.90;;;;;;;16.23;100.00;96570.00;5018041;28;20073;-52
2022/08/24 04:17:39;;;;;;;11.68;9.93;;;;;;;16.28;100.00;96572.16;5020671;28;20073;-53
2022/08/24 04:20:09;;;;;;;10.23;9.23;;;;;;;15.86;100.00;96576.91;5018620;28;20108;-47
2022/08/24 04:22:37;;;;;;;10.68;9.50;;;;;;;16.09;100.00;96582.25;5022062;28;20480;-47
2022/08/24 04:25:08;;;;;;;10.85;9.65;;;;;;;16.48;100.00;96583.13;5018994;28;20488;-51
2022/08/24 04:27:37;;;;;;;12.60;10.60;;;;;;;16.52;100.00;96571.97;5016156;28;20088;-53
2022/08/24 04:30:07;;;;;;;15.40;10.18;;;;;;;16.17;100.00;96570.72;5018012;28;20085;-51
2022/08/24 04:32:35;;;;;;;10.95;9.88;;;;;;;15.64;100.00;96578.47;5015050;28;20101;-54
2022/08/24 04:35:05;;;;;;;11.45;9.90;;;;;;;15.78;100.00;96576.13;5018912;28;20084;-47
2022/08/24 04:37:33;;;;;;;12.90;10.38;;;;;;;15.97;100.00;96573.03;5019019;28;20077;-51
2022/08/24 04:40:02;;;;;;;14.73;9.95;;;;;;;16.55;100.00;96574.28;5020555;28;20084;-53
2022/08/24 04:42:33;;;;;;;11.70;9.68;;;;;;;16.74;100.00;96580.94;5017979;28;20491;-51
2022/08/24 04:45:01;;;;;;;10.68;9.57;;;;;;;17.03;100.00;96579.34;5022872;28;20737;-50
2022/08/24 04:47:30;;;;;;;12.00;8.68;;;;;;;16.89;100.00;96578.31;5022259;28;20085;-53
2022/08/24 04:49:59;;;;;;;11.13;8.85;;;;;;;17.05;100.00;96577.34;5025317;28;20077;-50
2022/08/24 04:52:28;;;;;;;10.88;9.25;;;;;;;17.21;100.00;96577.16;5015802;28;20084;-54
2022/08/24 04:54:56;;;;;;;10.38;9.23;;;;;;;16.64;100.00;96588.34;5017626;28;20089;-53
2022/08/24 04:57:25;;;;;;;10.05;9.05;;;;;;;16.69;100.00;96596.63;5017741;28;20096;-49
2022/08/24 04:59:57;;;;;;;11.25;9.02;;;;;;;17.53;100.00;96586.63;5015341;28;20081;-52
2022/08/24 05:02:26;;;;;;;10.70;8.98;;;;;;;18.63;100.00;96582.94;5018550;28;20535;-51
2022/08/24 05:04:56;;;;;;;9.07;8.15;;;;;;;19.68;100.00;96575.88;5020767;28;20103;-51
2022/08/24 05:07:25;;;;;;;8.65;7.85;;;;;;;20.33;100.00;96576.28;5022073;28;20091;-49
2022/08/24 05:09:54;;;;;;;7.65;6.90;;;;;;;20.97;100.00;96574.94;5019595;28;20073;-51
2022/08/24 05:12:23;;;;;;;9.52;6.70;;;;;;;21.36;100.00;96574.09;5024104;28;20088;-46
2022/08/24 05:14:51;;;;;;;6.28;5.68;;;;;;;21.80;100.00;96586.75;5017760;28;20081;-51
2022/08/24 05:17:21;;;;;;;5.80;5.30;;;;;;;21.31;100.00;96588.09;5024101;28;20475;-49
2022/08/24 05:19:50;;;;;;;8.10;5.65;;;;;;;21.86;100.00;96595.84;5026095;28;20041;-54
2022/08/24 05:22:18;;;;;;;6.10;5.25;;;;;;;22.06;100.00;96587.72;5030328;28;20111;-52
2022/08/24 05:24:47;;;;;;;9.38;6.00;;;;;;;22.21;100.00;96587.44;5031761;28;20089;-47
2022/08/24 05:27:15;;;;;;;6.82;5.30;;;;;;;21.88;100.00;96604.47;5029417;28;20448;-51
2022/08/24 05:29:46;;;;;;;7.07;6.07;;;;;;;21.26;100.00;96603.16;5022213;28;20687;-46
2022/08/24 05:32:16;;;;;;;7.97;6.18;;;;;;;20.66;100.00;96605.03;5024943;28;20101;-53
2022/08/24 05:34:46;;;;;;;9.07;6.57;;;;;;;20.23;100.00;96602.66;5021988;28;20084;-51
2022/08/24 05:37:15;;;;;;;7.30;6.60;;;;;;;20.12;100.00;96610.22;5019569;28;20087;-54
2022/08/24 05:39:43;;;;;;;7.50;6.80;;;;;;;19.32;100.00;96617.00;5018597;28;20104;-50
2022/08/24 05:42:12;;;;;;;8.27;7.40;;;;;;;19.63;100.00;96615.78;5024025;28;20072;-51
2022/08/24 05:44:40;;;;;;;8.80;7.20;;;;;;;19.27;100.00;96616.78;5019308;28;20084;-52
2022/08/24 05:47:09;;;;;;;8.65;7.20;;;;;;;19.55;100.00;96623.97;5021763;28;20602;-56
2022/08/24 05:49:37;;;;;;;11.05;7.47;;;;;;;19.54;100.00;96617.75;5015403;28;20550;-56
2022/08/24 05:52:10;;;;;;;10.10;6.90;;;;;;;19.63;100.00;96621.13;5015520;28;20086;-55
2022/08/24 05:54:39;;;;;;;8.82;6.80;;;;;;;19.86;100.00;96628.88;5017895;28;20084;-54
2022/08/24 05:57:10;;;;;;;9.43;7.00;;;;;;;20.44;100.00;96623.94;5019302;28;20045;-54
2022/08/24 05:59:38;;;;;;;8.52;6.72;;;;;;;19.72;100.00;96625.31;5020198;28;20085;-55
2022/08/24 06:02:08;;;;;;;7.90;7.07;;;;;;;20.41;100.00;96621.66;5020379;28;20752;-57
2022/08/24 06:04:37;;;;;;;8.85;7.43;;;;;;;20.10;100.00;96627.53;5021702;28;20511;-52
2022/08/24 06:07:08;;;;;;;9.18;8.00;;;;;;;20.36;100.00;96618.75;5030928;28;20084;-53
2022/08/24 06:09:38;;;;;;;9.88;8.90;;;;;;;20.92;100.00;96622.97;5028670;28;20073;-54
2022/08/24 06:12:07;;;;;;;10.50;9.10;;;;;;;21.20;100.00;96625.47;5030168;28;20559;-54
2022/08/24 06:14:36;;;;;;;12.23;9.93;;;;;;;21.15;100.00;96626.09;5031107;28;20180;-51
2022/08/24 06:17:06;;;;;;;11.55;9.45;;;;;;;21.14;100.00;96623.63;5030745;28;20503;-57
2022/08/24 06:19:35;;;;;;;12.55;10.82;;;;;;;21.13;100.00;96621.94;5026560;28;20084;-53
2022/08/24 06:22:04;;;;;;;12.30;11.00;;;;;;;21.50;100.00;96624.00;5030529;28;20073;-55
2022/08/24 06:27:22;;;;;;;11.43;9.85;;;;;;;21.99;100.00;96625.31;5030730;28;20084;-55
2022/08/24 06:29:52;;;;;;;11.73;10.30;;;;;;;22.12;100.00;96621.75;5030735;28;20093;-59
2022/08/24 06:32:21;;;;;;;12.73;10.60;;;;;;;22.29;100.00;96616.75;5030509;28;20168;-56
2022/08/24 06:34:50;;;;;;;12.23;10.10;;;;;;;22.33;100.00;96617.13;5031018;28;20115;-54
2022/08/24 06:37:18;;;;;;;13.77;8.98;;;;;;;22.60;100.00;96612.44;5029980;28;20081;-52
2022/08/24 06:39:47;;;;;;;11.00;8.93;;;;;;;22.51;100.00;96609.19;5030043;28;20524;-54
2022/08/24 06:42:24;;;;;;;10.02;8.70;;;;;;;22.23;100.00;96609.56;5026664;28;20112;-54
2022/08/24 06:44:52;;;;;;;;;;;;;;;23.29;100.00;96613.38;5031056;28;20073;-55
2022/08/24 06:47:21;;;;;;;11.15;8.90;;;;;;;23.46;100.00;96617.97;5030488;28;19967;-52
2022/08/24 06:49:49;;;;;;;10.30;8.95;;;;;;;23.40;100.00;96618.88;5030439;28;20080;-54
2022/08/24 06:52:18;;;;;;;8.15;7.28;;;;;;;23.09;100.00;96627.00;5029918;28;20085;-53
2022/08/24 06:54:46;;;;;;;9.57;7.90;;;;;;;23.07;100.00;96624.53;5030580;28;20437;-54
2022/08/24 06:57:14;;;;;;;11.70;8.25;;;;;;;23.19;100.00;96630.00;5029620;28;20069;-54
2022/08/24 06:59:45;;;;;;;7.78;6.60;;;;;;;23.55;100.00;96626.59;5025321;28;20099;-54
2022/08/24 07:02:15;;;;;;;;;;;;;;;23.77;100.00;96635.06;5026503;28;20080;-58
2022/08/24 07:04:43;;;;;;;8.43;7.50;;;;;;;23.57;100.00;96632.59;5030121;28;19964;-55
2022/08/24 07:07:11;;;;;;;9.88;8.73;;;;;;;23.31;100.00;96636.34;5025878;28;21082;-53
2022/08/24 07:09:40;;;;;;;10.88;8.95;;;;;;;23.57;100.00;96639.81;5029581;28;20480;-51
2022/08/24 07:12:08;;;;;;;11.93;10.68;;;;;;;23.76;100.00;96638.81;5029109;28;20085;-55
2022/08/24 07:14:37;;;;;;;12.15;10.70;;;;;;;23.60;100.00;96636.69;5029648;28;20081;-53
2022/08/24 07:17:06;;;;;;;12.38;9.20;;;;;;;23.77;100.00;96637.75;5029871;28;20073;-53
2022/08/24 07:19:35;;;;;;;12.20;9.40;;;;;;;23.79;100.00;96633.00;5028819;28;20493;-54
2022/08/24 07:22:03;;;;;;;16.20;10.65;;;;;;;23.58;100.00;96636.91;5025599;28;20088;-51
2022/08/24 07:24:32;;;;;;;16.00;10.73;;;;;;;24.05;100.00;96629.16;5028606;28;20192;-48
2022/08/24 07:27:01;;;;;;;13.90;9.73;;;;;;;24.36;100.00;96635.41;5029608;28;20527;-55
2022/08/24 07:29:29;;;;;;;12.00;10.50;;;;;;;23.97;100.00;96636.72;5029743;28;20088;-55
2022/08/24 07:32:19;;;;;;;12.20;10.85;;;;;;;23.51;100.00;96630.78;5029297;28;20084;-55
2022/08/24 07:34:47;;;;;;;11.82;10.60;;;;;;;23.40;100.00;96636.84;5025659;28;20081;-56
2022/08/24 07:37:16;;;;;;;12.50;10.60;;;;;;;24.23;100.00;96622.13;5029138;28;20143;-53
2022/08/24 07:39:44;;;;;;;11.30;9.57;;;;;;;24.51;100.00;96625.09;5029294;28;20092;-56
2022/08/24 07:42:13;;;;;;;11.45;10.25;;;;;;;23.86;100.00;96625.66;5022360;28;20085;-55
2022/08/24 07:44:50;;;;;;;11.60;9.43;;;;;;;24.25;100.00;96623.53;5024700;28;20088;-56
2022/08/24 07:47:20;;;;;;;10.23;8.60;;;;;;;24.16;100.00;96630.28;5029031;28;20080;-55
2022/08/24 07:50:06;;;;;;;10.65;9.55;;;;;;;24.61;100.00;96628.06;5026785;28;20559;-55
2022/08/24 07:52:34;;;;;;;9.40;8.38;;;;;;;24.43;100.00;96627.25;5028733;28;20089;-56
2022/08/24 07:55:04;;;;;;;8.35;7.55;;;;;;;24.89;100.00;96629.31;5028577;28;20081;-56
2022/08/24 07:57:33;;;;;;;8.35;6.93;;;;;;;25.05;100.00;96620.53;5028445;28;20065;-56
2022/08/24 08:00:02;;;;;;;7.40;6.70;;;;;;;24.54;100.00;96630.03;5028697;28;20088;-50
2022/08/24 08:02:33;;;;;;;6.88;5.85;;;;;;;24.64;100.00;96618.69;5025756;28;20088;-54
2022/08/24 08:05:04;;;;;;;7.45;5.20;;;;;;;25.28;100.00;96630.56;5029240;28;20096;-54
2022/08/24 08:07:32;;;;;;;6.25;5.53;;;;;;;25.48;100.00;96618.59;5028642;28;20081;-57
2022/08/24 08:10:01;;;;;;;6.57;5.38;;;;;;;24.77;100.00;96621.16;5028498;28;20103;-54
2022/08/24 08:12:30;;;;;;;6.93;5.50;;;;;;;25.92;100.00;96622.59;5028583;28;20464;-54
2022/08/24 08:14:58;;;;;;;4.72;3.88;;;;;;;25.53;100.00;96613.31;5029103;28;20528;-51
2022/08/24 08:17:27;;;;;;;5.68;4.95;;;;;;;25.27;100.00;96620.81;5024842;28;20537;-56
2022/08/24 08:19:56;;;;;;;4.15;3.50;;;;;;;25.23;100.00;96616.97;5028816;28;20080;-54
2022/08/24 08:25:11;;;;;;;5.47;4.20;;;;;;;25.17;100.00;96614.38;5024239;28;20643;-56
2022/08/24 08:27:39;;;;;;;7.55;3.85;;;;;;;25.17;100.00;96619.75;5028827;28;20081;-57
2022/08/24 08:30:09;;;;;;;4.95;4.38;;;;;;;25.48;100.00;96624.00;5027958;28;20085;-50
2022/08/24 08:32:38;;;;;;;6.25;4.47;;;;;;;25.43;100.00;96623.88;5028276;28;20089;-49
2022/08/24 08:35:08;;;;;;;6.82;4.57;;;;;;;25.47;100.00;96630.47;5030004;28;20547;-56
2022/08/24 08:37:37;;;;;;;4.88;3.75;;;;;;;26.13;100.00;96629.22;5032676;28;20472;-50
2022/08/24 08:40:08;;;;;;;4.80;4.10;;;;;;;26.31;100.00;96625.53;5032798;28;20456;-55
2022/08/24 08:43:00;;;;;;;6.95;4.55;;;;;;;25.47;100.00;96622.38;5032402;28;20116;-55
2022/08/24 08:45:40;;;;;;;4.60;3.15;;;;;;;26.83;100.00;96614.63;5022336;28;20081;-54
2022/08/24 08:48:47;;;;;;;4.78;3.80;;;;;;;27.06;100.00;96624.50;5032486;28;20073;-52
2022/08/24 08:51:55;;;;;;;4.75;3.80;;;;;;;27.06;100.00;96607.44;5023954;28;20077;-53
2022/08/24 08:54:39;;;;;;;6.15;3.95;;;;;;;26.74;100.00;96619.63;5026540;28;20072;-56
2022/08/24 08:57:36;;;;;;;4.25;3.40;;;;;;;27.12;100.00;96618.13;5028465;28;20073;-55
2022/08/24 09:00:16;;;;;;;5.20;3.92;;;;;;;26.55;100.00;96612.75;5026872;28;20069;-55
2022/08/24 09:03:08;;;;;;;3.97;3.55;;;;;;;26.82;100.00;96615.69;5030625;28;20077;-54
2022/08/24 09:05:57;;;;;;;4.50;4.03;;;;;;;26.51;100.00;96617.84;5032368;28;20089;-57
2022/08/24 09:08:36;;;;;;;5.20;4.22;;;;;;;27.24;100.00;96609.09;5027285;28;20085;-59
2022/08/24 09:11:09;;;;;;;5.13;4.35;;;;;;;27.09;100.00;96602.34;5030198;28;20092;-51
2022/08/24 09:13:48;;;;;;;6.72;4.32;;;;;;;26.91;100.00;96616.09;5026836;28;20460;-54
2022/08/24 09:16:30;;;;;;;6.47;4.10;;;;;;;27.49;100.00;96608.66;5032373;28;20089;-58
2022/08/24 09:19:17;;;;;;;5.47;4.03;;;;;;;27.11;100.00;96615.63;5031908;28;20077;-53
2022/08/24 09:21:56;;;;;;;5.43;4.30;;;;;;;27.36;100.00;96621.50;5024939;28;20084;-57
2022/08/24 09:24:38;;;;;;;6.22;4.45;;;;;;;27.36;100.00;96617.97;5032602;28;20084;-56
2022/08/24 09:27:14;;;;;;;4.78;4.28;;;;;;;28.29;100.00;96618.16;5030751;28;20132;-55
2022/08/24 09:29:55;;;;;;;5.25;4.30;;;;;;;27.82;100.00;96611.34;5031599;28;20092;-56
2022/08/24 09:32:35;;;;;;;;;;;;;;;28.15;100.00;96618.56;5026834;28;20536;-59
2022/08/24 09:35:07;;;;;;;5.05;4.00;;;;;;;27.98;100.00;96606.09;5032368;28;19956;-56
2022/08/24 09:37:55;;;;;;;5.90;3.90;;;;;;;28.98;100.00;96612.13;5031815;28;20077;-56
2022/08/24 09:40:36;;;;;;;5.43;4.07;;;;;;;27.95;100.00;96606.63;5031762;28;20096;-55
2022/08/24 09:43:52;;;;;;;4.88;4.15;;;;;;;27.53;100.00;96607.09;5026790;28;20081;-53
2022/08/24 09:46:39;;;;;;;3.90;3.50;;;;;;;28.93;100.00;96601.19;5026275;28;20093;-55
2022/08/24 09:49:50;;;;;;;4.18;3.50;;;;;;;27.16;100.00;96607.63;5024164;28;20130;-57
2022/08/24 09:52:52;;;;;;;3.90;3.50;;;;;;;27.81;100.00;96604.28;5019016;28;20088;-58
2022/08/24 09:55:57;;;;;;;5.90;3.83;;;;;;;27.68;100.00;96604.63;5022864;28;20085;-57
2022/08/24 09:58:36;;;;;;;3.72;3.38;;;;;;;28.75;99.60;96594.25;5031276;28;20081;-55
2022/08/24 10:01:10;;;;;;;5.03;3.85;;;;;;;29.28;90.04;96595.25;5026118;28;20080;-52
2022/08/24 10:03:50;;;;;;;3.90;3.50;;;;;;;29.05;95.97;96589.13;5031035;28;20089;-54
2022/08/24 10:06:27;;;;;;;5.40;4.00;;;;;;;28.59;94.85;96596.00;5031878;28;20096;-56
2022/08/24 10:09:34;;;;;;;4.97;3.50;;;;;;;28.67;100.00;96600.16;5028560;28;20096;-57
2022/08/24 10:12:06;;;;;;;5.15;3.33;;;;;;;28.48;97.27;96599.69;5027905;28;20563;-55
2022/08/24 10:14:45;;;;;;;4.07;3.30;;;;;;;28.96;95.82;96596.06;5029565;28;20081;-54
2022/08/24 10:17:18;;;;;;;4.63;3.47;;;;;;;28.98;87.61;96596.66;5030889;28;20084;-54
2022/08/24 10:19:56;;;;;;;4.72;3.15;;;;;;;28.67;100.00;96594.72;5030667;28;20090;-56
2022/08/24 10:22:36;;;;;;;4.53;3.45;;;;;;;29.18;94.74;96587.88;5030866;28;20100;-52
2022/08/24 10:25:14;;;;;;;3.53;3.15;;;;;;;29.98;76.14;96591.38;5030122;28;20535;-54
2022/08/24 10:27:51;;;;;;;3.55;3.03;;;;;;;29.23;74.60;96587.09;5030544;28;20045;-54
2022/08/24 10:30:47;;;;;;;4.00;2.72;;;;;;;29.34;73.66;96583.34;5030710;28;20100;-54
2022/08/24 10:33:21;;;;;;;3.70;2.80;;;;;;;29.64;71.80;96580.06;5030440;28;20784;-57
2022/08/24 10:36:03;;;;;;;3.60;2.92;;;;;;;30.06;59.69;96589.22;5030804;28;20102;-58
2022/08/24 10:41:45;;;;;;;3.88;2.35;;;;;;;30.36;62.18;96578.47;5030699;28;20085;-57
2022/08/24 10:44:29;;;;;;;3.33;2.50;;;;;;;29.34;64.13;96572.50;5027503;28;20088;-56
2022/08/24 10:47:00;;;;;;;3.38;2.70;;;;;;;30.72;55.03;96576.63;5018747;28;20528;-55
2022/08/24 10:50:02;;;;;;;2.88;2.60;;;;;;;30.49;59.78;96571.72;5030548;28;20069;-55
2022/08/24 10:52:57;;;;;;;3.40;2.72;;;;;;;30.71;59.17;96580.44;5028262;28;20084;-57
2022/08/24 10:55:28;;;;;;;6.32;2.88;;;;;;;30.26;63.02;96578.44;5026866;28;20554;-58
2022/08/24 10:58:10;;;;;;;5.90;3.00;;;;;;;30.32;64.50;96574.66;5030437;28;20084;-56
2022/08/24 11:00:39;;;;;;;4.45;2.33;;;;;;;30.30;58.40;96576.00;5030295;28;20089;-58
2022/08/24 11:03:12;;;;;;;2.67;2.47;;;;;;;30.03;53.17;96566.91;5029394;28;20505;-53
2022/08/24 11:05:44;;;;;;;5.00;2.72;;;;;;;31.02;56.40;96566.06;5030221;28;20084;-53
2022/08/24 11:08:20;;;;;;;4.68;2.60;;;;;;;29.96;63.62;96571.78;5025348;28;20127;-53
2022/08/24 11:11:05;;;;;;;4.13;2.60;;;;;;;30.46;57.84;96572.25;5029586;28;20100;-53
2022/08/24 11:13:35;;;;;;;5.30;2.95;;;;;;;32.00;50.04;96562.09;5029411;28;20127;-52
2022/08/24 11:16:06;;;;;;;3.65;2.70;;;;;;;30.23;56.87;96579.78;5029844;28;20088;-56
2022/08/24 11:18:50;;;;;;;4.22;2.60;;;;;;;30.13;57.22;96574.28;5030020;28;20101;-54
2022/08/24 11:21:32;;;;;;;4.30;2.65;;;;;;;31.06;52.51;96567.97;5023572;28;20088;-56
2022/08/24 11:24:02;;;;;;;4.57;2.53;;;;;;;30.37;55.86;96569.22;5029729;28;20131;-56
2022/08/24 11:26:31;;;;;;;3.50;2.33;;;;;;;31.01;54.87;96561.72;5029540;28;20076;-54
2022/08/24 11:29:01;;;;;;;4.60;2.70;;;;;;;30.13;52.28;96568.03;5029851;28;20153;-56
2022/08/24 11:31:33;;;;;;;2.95;2.30;;;;;;;31.07;49.92;96561.44;5029302;28;20523;-54
2022/08/24 11:34:06;;;;;;;3.60;2.35;;;;;;;32.25;48.02;96561.19;5026653;28;20092;-55
2022/08/24 11:36:37;;;;;;;3.10;2.08;;;;;;;31.47;48.88;96565.22;5029349;28;20558;-57
2022/08/24 11:39:17;;;;;;;3.65;2.40;;;;;;;31.62;50.42;96558.91;5029929;28;20107;-55
2022/08/24 11:41:53;;;;;;;3.90;2.35;;;;;;;31.48;49.51;96553.22;5020424;28;20524;-53
2022/08/24 11:44:40;;;;;;;2.55;2.15;;;;;;;31.17;51.53;96555.16;5025859;28;20073;-59
2022/08/24 11:47:44;;;;;;;3.67;2.47;;;;;;;31.32;51.34;96560.63;5025194;28;20516;-58
2022/08/24 11:50:21;;;;;;;3.88;2.40;;;;;;;30.78;54.79;96560.34;5028773;28;20069;-58
2022/08/24 11:53:04;;;;;;;3.70;2.65;;;;;;;31.17;56.41;96566.88;5024564;28;20045;-56
2022/08/24 11:55:44;;;;;;;2.95;2.58;;;;;;;31.48;55.52;96553.22;5029762;28;20084;-57
2022/08/24 11:58:26;;;;;;;3.70;3.03;;;;;;;31.11;57.75;96567.97;5025216;28;20084;-55
2022/08/24 12:00:58;;;;;;;5.00;2.88;;;;;;;30.51;61.33;96564.09;5029006;28;20472;-55
2022/08/24 12:03:40;;;;;;;4.43;3.08;;;;;;;31.37;55.96;96557.06;5022329;28;20088;-55